sensor_id;sensor_type;location;lat;lon;timestamp;P1;durP1;ratioP1;P2;durP2;ratioP2
52124;SDS011;38119;52.710;6.398;2023-02-28T00:01:00;8.15;;;2.70;;
52124;SDS011;38119;52.710;6.398;2023-02-28T00:03:26;8.23;;;3.00;;
52124;SDS011;38119;52.710;6.398;2023-02-28T00:05:52;7.75;;;3.10;;
52124;SDS011;38119;52.710;6.398;2023-02-28T00:08:17;6.47;;;2.90;;
52124;SDS011;38119;52.710;6.398;2023-02-28T00:10:43;7.82;;;3.08;;
52124;SDS011;38119;52.710;6.398;2023-02-28T00:13:08;8.05;;;2.90;;
52124;SDS011;38119;52.710;6.398;2023-02-28T00:15:34;10.95;;;3.25;;
52124;SDS011;38119;52.710;6.398;2023-02-28T00:18:00;8.63;;;2.88;;
52124;SDS011;38119;52.710;6.398;2023-02-28T00:20:26;9.55;;;3.60;;
52124;SDS011;38119;52.710;6.398;2023-02-28T00:22:52;6.80;;;3.35;;
52124;SDS011;38119;52.710;6.398;2023-02-28T00:25:19;10.25;;;3.28;;
52124;SDS011;38119;52.710;6.398;2023-02-28T00:27:47;6.95;;;3.35;;
52124;SDS011;38119;52.710;6.398;2023-02-28T00:30:14;8.23;;;3.17;;
52124;SDS011;38119;52.710;6.398;2023-02-28T00:32:42;12.10;;;3.30;;
52124;SDS011;38119;52.710;6.398;2023-02-28T00:35:08;9.02;;;3.70;;
52124;SDS011;38119;52.710;6.398;2023-02-28T00:37:35;8.13;;;3.22;;
52124;SDS011;38119;52.710;6.398;2023-02-28T00:40:01;13.93;;;3.95;;
52124;SDS011;38119;52.710;6.398;2023-02-28T00:42:29;9.70;;;3.67;;
52124;SDS011;38119;52.710;6.398;2023-02-28T00:44:55;9.70;;;3.60;;
52124;SDS011;38119;52.710;6.398;2023-02-28T00:47:21;7.15;;;3.03;;
52124;SDS011;38119;52.710;6.398;2023-02-28T00:49:47;9.30;;;3.50;;
52124;SDS011;38119;52.710;6.398;2023-02-28T00:52:12;9.27;;;3.40;;
52124;SDS011;38119;52.710;6.398;2023-02-28T00:54:38;7.47;;;3.35;;
52124;SDS011;38119;52.710;6.398;2023-02-28T00:57:04;9.55;;;3.30;;
52124;SDS011;38119;52.710;6.398;2023-02-28T00:59:29;8.32;;;3.63;;
52124;SDS011;38119;52.710;6.398;2023-02-28T01:01:55;9.80;;;3.50;;
52124;SDS011;38119;52.710;6.398;2023-02-28T01:04:20;8.82;;;3.80;;
52124;SDS011;38119;52.710;6.398;2023-02-28T01:06:46;10.98;;;4.15;;
52124;SDS011;38119;52.710;6.398;2023-02-28T01:09:12;9.50;;;3.50;;
52124;SDS011;38119;52.710;6.398;2023-02-28T01:11:38;10.70;;;3.72;;
52124;SDS011;38119;52.710;6.398;2023-02-28T01:14:06;8.18;;;3.53;;
52124;SDS011;38119;52.710;6.398;2023-02-28T01:16:33;9.65;;;4.13;;
52124;SDS011;38119;52.710;6.398;2023-02-28T01:18:59;9.85;;;3.85;;
52124;SDS011;38119;52.710;6.398;2023-02-28T01:21:24;11.52;;;3.85;;
52124;SDS011;38119;52.710;6.398;2023-02-28T01:23:50;8.35;;;3.70;;
52124;SDS011;38119;52.710;6.398;2023-02-28T01:26:17;9.55;;;3.65;;
52124;SDS011;38119;52.710;6.398;2023-02-28T01:28:44;9.23;;;3.90;;
52124;SDS011;38119;52.710;6.398;2023-02-28T01:31:10;8.05;;;3.30;;
52124;SDS011;38119;52.710;6.398;2023-02-28T01:33:36;10.70;;;3.78;;
52124;SDS011;38119;52.710;6.398;2023-02-28T01:36:04;10.25;;;3.63;;
52124;SDS011;38119;52.710;6.398;2023-02-28T01:38:32;9.93;;;3.50;;
52124;SDS011;38119;52.710;6.398;2023-02-28T01:40:58;9.15;;;3.63;;
52124;SDS011;38119;52.710;6.398;2023-02-28T01:43:28;8.05;;;3.88;;
52124;SDS011;38119;52.710;6.398;2023-02-28T01:46:15;7.43;;;4.35;;
52124;SDS011;38119;52.710;6.398;2023-02-28T01:51:19;10.82;;;3.83;;
52124;SDS011;38119;52.710;6.398;2023-02-28T01:53:56;7.85;;;3.90;;
52124;SDS011;38119;52.710;6.398;2023-02-28T01:56:29;11.00;;;4.00;;
52124;SDS011;38119;52.710;6.398;2023-02-28T01:58:57;8.32;;;3.78;;
52124;SDS011;38119;52.710;6.398;2023-02-28T02:01:24;7.63;;;3.53;;
52124;SDS011;38119;52.710;6.398;2023-02-28T02:03:53;10.48;;;3.58;;
52124;SDS011;38119;52.710;6.398;2023-02-28T02:06:25;9.63;;;3.78;;
52124;SDS011;38119;52.710;6.398;2023-02-28T02:08:55;11.43;;;3.42;;
52124;SDS011;38119;52.710;6.398;2023-02-28T02:11:21;12.20;;;3.92;;
52124;SDS011;38119;52.710;6.398;2023-02-28T02:16:52;7.53;;;3.60;;
52124;SDS011;38119;52.710;6.398;2023-02-28T02:23:17;14.38;;;4.43;;
52124;SDS011;38119;52.710;6.398;2023-02-28T02:38:31;11.18;;;4.53;;
52124;SDS011;38119;52.710;6.398;2023-02-28T02:43:52;9.65;;;4.80;;
52124;SDS011;38119;52.710;6.398;2023-02-28T02:46:23;11.60;;;5.18;;
52124;SDS011;38119;52.710;6.398;2023-02-28T02:48:54;8.30;;;4.72;;
52124;SDS011;38119;52.710;6.398;2023-02-28T02:51:25;10.52;;;5.22;;
52124;SDS011;38119;52.710;6.398;2023-02-28T02:53:54;10.88;;;5.30;;
52124;SDS011;38119;52.710;6.398;2023-02-28T02:56:25;10.55;;;5.07;;
52124;SDS011;38119;52.710;6.398;2023-02-28T02:58:53;14.65;;;5.60;;
52124;SDS011;38119;52.710;6.398;2023-02-28T03:01:23;14.25;;;7.05;;
52124;SDS011;38119;52.710;6.398;2023-02-28T03:03:56;16.90;;;7.03;;
52124;SDS011;38119;52.710;6.398;2023-02-28T03:06:25;17.07;;;7.73;;
52124;SDS011;38119;52.710;6.398;2023-02-28T03:08:51;15.27;;;7.78;;
52124;SDS011;38119;52.710;6.398;2023-02-28T03:11:17;16.15;;;7.90;;
52124;SDS011;38119;52.710;6.398;2023-02-28T03:21:34;15.70;;;8.27;;
52124;SDS011;38119;52.710;6.398;2023-02-28T03:26:34;15.45;;;9.10;;
52124;SDS011;38119;52.710;6.398;2023-02-28T03:29:19;14.45;;;8.95;;
52124;SDS011;38119;52.710;6.398;2023-02-28T03:31:54;18.13;;;9.13;;
52124;SDS011;38119;52.710;6.398;2023-02-28T03:34:37;16.08;;;8.98;;
52124;SDS011;38119;52.710;6.398;2023-02-28T03:37:09;18.83;;;9.40;;
52124;SDS011;38119;52.710;6.398;2023-02-28T03:39:41;17.25;;;9.20;;
52124;SDS011;38119;52.710;6.398;2023-02-28T03:42:15;17.10;;;8.77;;
52124;SDS011;38119;52.710;6.398;2023-02-28T03:44:52;14.82;;;8.52;;
52124;SDS011;38119;52.710;6.398;2023-02-28T03:47:26;13.88;;;9.13;;
52124;SDS011;38119;52.710;6.398;2023-02-28T03:52:42;15.25;;;8.35;;
52124;SDS011;38119;52.710;6.398;2023-02-28T03:55:12;13.68;;;8.38;;
52124;SDS011;38119;52.710;6.398;2023-02-28T04:00:14;16.35;;;8.85;;
52124;SDS011;38119;52.710;6.398;2023-02-28T04:02:41;17.42;;;9.07;;
52124;SDS011;38119;52.710;6.398;2023-02-28T04:05:07;18.52;;;9.13;;
52124;SDS011;38119;52.710;6.398;2023-02-28T04:07:33;17.30;;;9.57;;
52124;SDS011;38119;52.710;6.398;2023-02-28T04:09:59;15.15;;;9.15;;
52124;SDS011;38119;52.710;6.398;2023-02-28T04:12:24;16.45;;;9.07;;
52124;SDS011;38119;52.710;6.398;2023-02-28T04:14:50;16.88;;;9.38;;
52124;SDS011;38119;52.710;6.398;2023-02-28T04:17:16;17.65;;;9.52;;
52124;SDS011;38119;52.710;6.398;2023-02-28T04:19:42;19.30;;;10.00;;
52124;SDS011;38119;52.710;6.398;2023-02-28T04:22:08;16.50;;;9.63;;
52124;SDS011;38119;52.710;6.398;2023-02-28T04:24:34;16.10;;;9.38;;
52124;SDS011;38119;52.710;6.398;2023-02-28T04:27:00;21.17;;;10.30;;
52124;SDS011;38119;52.710;6.398;2023-02-28T04:29:27;19.23;;;10.57;;
52124;SDS011;38119;52.710;6.398;2023-02-28T04:31:54;18.58;;;9.60;;
52124;SDS011;38119;52.710;6.398;2023-02-28T04:34:24;20.08;;;10.25;;
52124;SDS011;38119;52.710;6.398;2023-02-28T04:36:55;16.38;;;8.82;;
52124;SDS011;38119;52.710;6.398;2023-02-28T04:39:22;17.63;;;9.18;;
52124;SDS011;38119;52.710;6.398;2023-02-28T04:41:48;16.88;;;8.93;;
52124;SDS011;38119;52.710;6.398;2023-02-28T04:44:14;16.77;;;9.73;;
52124;SDS011;38119;52.710;6.398;2023-02-28T04:46:41;16.83;;;10.00;;
52124;SDS011;38119;52.710;6.398;2023-02-28T04:49:11;18.33;;;9.77;;
52124;SDS011;38119;52.710;6.398;2023-02-28T04:51:37;16.25;;;9.45;;
52124;SDS011;38119;52.710;6.398;2023-02-28T04:54:04;15.77;;;9.55;;
52124;SDS011;38119;52.710;6.398;2023-02-28T04:56:30;16.30;;;9.50;;
52124;SDS011;38119;52.710;6.398;2023-02-28T04:58:55;18.95;;;9.93;;
52124;SDS011;38119;52.710;6.398;2023-02-28T05:01:22;15.27;;;9.35;;
52124;SDS011;38119;52.710;6.398;2023-02-28T05:03:52;17.33;;;9.93;;
52124;SDS011;38119;52.710;6.398;2023-02-28T05:06:19;16.95;;;9.50;;
52124;SDS011;38119;52.710;6.398;2023-02-28T05:08:46;16.95;;;9.57;;
52124;SDS011;38119;52.710;6.398;2023-02-28T05:11:17;18.38;;;9.27;;
52124;SDS011;38119;52.710;6.398;2023-02-28T05:13:44;15.70;;;9.38;;
52124;SDS011;38119;52.710;6.398;2023-02-28T05:16:10;16.60;;;9.52;;
52124;SDS011;38119;52.710;6.398;2023-02-28T05:18:36;17.17;;;9.80;;
52124;SDS011;38119;52.710;6.398;2023-02-28T05:21:02;20.65;;;9.68;;
52124;SDS011;38119;52.710;6.398;2023-02-28T05:23:28;17.20;;;9.32;;
52124;SDS011;38119;52.710;6.398;2023-02-28T05:25:54;19.77;;;9.95;;
52124;SDS011;38119;52.710;6.398;2023-02-28T05:28:20;16.23;;;9.38;;
52124;SDS011;38119;52.710;6.398;2023-02-28T05:30:46;18.88;;;10.00;;
52124;SDS011;38119;52.710;6.398;2023-02-28T05:33:12;15.57;;;9.43;;
52124;SDS011;38119;52.710;6.398;2023-02-28T05:35:38;16.85;;;9.38;;
52124;SDS011;38119;52.710;6.398;2023-02-28T05:38:05;15.52;;;8.98;;
52124;SDS011;38119;52.710;6.398;2023-02-28T05:40:30;15.07;;;8.95;;
52124;SDS011;38119;52.710;6.398;2023-02-28T05:42:56;18.05;;;9.57;;
52124;SDS011;38119;52.710;6.398;2023-02-28T05:45:22;16.92;;;8.77;;
52124;SDS011;38119;52.710;6.398;2023-02-28T05:47:47;15.52;;;8.52;;
52124;SDS011;38119;52.710;6.398;2023-02-28T05:50:13;16.58;;;9.43;;
52124;SDS011;38119;52.710;6.398;2023-02-28T05:52:39;17.02;;;9.30;;
52124;SDS011;38119;52.710;6.398;2023-02-28T05:55:04;17.42;;;9.93;;
52124;SDS011;38119;52.710;6.398;2023-02-28T05:57:30;16.77;;;9.52;;
52124;SDS011;38119;52.710;6.398;2023-02-28T05:59:56;17.80;;;9.32;;
52124;SDS011;38119;52.710;6.398;2023-02-28T06:02:22;17.40;;;9.73;;
52124;SDS011;38119;52.710;6.398;2023-02-28T06:04:47;16.58;;;9.48;;
52124;SDS011;38119;52.710;6.398;2023-02-28T06:07:13;20.30;;;10.38;;
52124;SDS011;38119;52.710;6.398;2023-02-28T06:09:39;16.33;;;9.30;;
52124;SDS011;38119;52.710;6.398;2023-02-28T06:12:06;16.50;;;9.70;;
52124;SDS011;38119;52.710;6.398;2023-02-28T06:14:34;17.13;;;9.30;;
52124;SDS011;38119;52.710;6.398;2023-02-28T06:17:00;15.07;;;8.85;;
52124;SDS011;38119;52.710;6.398;2023-02-28T06:19:26;14.65;;;8.77;;
52124;SDS011;38119;52.710;6.398;2023-02-28T06:21:53;14.82;;;9.02;;
52124;SDS011;38119;52.710;6.398;2023-02-28T06:24:19;18.60;;;9.80;;
52124;SDS011;38119;52.710;6.398;2023-02-28T06:26:46;17.90;;;9.63;;
52124;SDS011;38119;52.710;6.398;2023-02-28T06:29:12;17.33;;;10.25;;
52124;SDS011;38119;52.710;6.398;2023-02-28T06:31:43;17.50;;;10.07;;
52124;SDS011;38119;52.710;6.398;2023-02-28T06:34:13;18.13;;;10.13;;
52124;SDS011;38119;52.710;6.398;2023-02-28T06:36:39;20.92;;;10.00;;
52124;SDS011;38119;52.710;6.398;2023-02-28T06:39:06;18.02;;;9.75;;
52124;SDS011;38119;52.710;6.398;2023-02-28T06:41:32;19.13;;;10.20;;
52124;SDS011;38119;52.710;6.398;2023-02-28T06:44:02;15.10;;;9.32;;
52124;SDS011;38119;52.710;6.398;2023-02-28T06:46:39;20.27;;;10.27;;
52124;SDS011;38119;52.710;6.398;2023-02-28T06:49:06;17.63;;;9.57;;
52124;SDS011;38119;52.710;6.398;2023-02-28T06:51:33;21.05;;;9.90;;
52124;SDS011;38119;52.710;6.398;2023-02-28T06:54:01;15.63;;;9.48;;
52124;SDS011;38119;52.710;6.398;2023-02-28T06:56:26;18.00;;;9.57;;
52124;SDS011;38119;52.710;6.398;2023-02-28T06:58:52;15.73;;;9.43;;
52124;SDS011;38119;52.710;6.398;2023-02-28T07:01:18;16.23;;;9.82;;
52124;SDS011;38119;52.710;6.398;2023-02-28T07:03:45;17.67;;;9.68;;
52124;SDS011;38119;52.710;6.398;2023-02-28T07:06:11;14.00;;;8.80;;
52124;SDS011;38119;52.710;6.398;2023-02-28T07:08:36;15.23;;;9.30;;
52124;SDS011;38119;52.710;6.398;2023-02-28T07:11:02;17.60;;;9.70;;
52124;SDS011;38119;52.710;6.398;2023-02-28T07:13:29;17.33;;;8.88;;
52124;SDS011;38119;52.710;6.398;2023-02-28T07:16:02;16.00;;;9.05;;
52124;SDS011;38119;52.710;6.398;2023-02-28T07:18:29;15.15;;;9.25;;
52124;SDS011;38119;52.710;6.398;2023-02-28T07:20:55;15.85;;;8.25;;
52124;SDS011;38119;52.710;6.398;2023-02-28T07:23:21;14.05;;;8.35;;
52124;SDS011;38119;52.710;6.398;2023-02-28T07:25:47;14.10;;;8.95;;
52124;SDS011;38119;52.710;6.398;2023-02-28T07:28:14;17.25;;;9.13;;
52124;SDS011;38119;52.710;6.398;2023-02-28T07:30:40;15.77;;;9.07;;
52124;SDS011;38119;52.710;6.398;2023-02-28T07:33:06;17.80;;;9.05;;
52124;SDS011;38119;52.710;6.398;2023-02-28T07:35:32;18.08;;;9.07;;
52124;SDS011;38119;52.710;6.398;2023-02-28T07:37:58;12.90;;;7.97;;
52124;SDS011;38119;52.710;6.398;2023-02-28T07:40:24;17.30;;;9.30;;
52124;SDS011;38119;52.710;6.398;2023-02-28T07:42:50;15.27;;;8.82;;
52124;SDS011;38119;52.710;6.398;2023-02-28T07:45:16;16.45;;;9.13;;
52124;SDS011;38119;52.710;6.398;2023-02-28T07:47:42;15.75;;;9.13;;
52124;SDS011;38119;52.710;6.398;2023-02-28T07:50:10;16.85;;;9.00;;
52124;SDS011;38119;52.710;6.398;2023-02-28T07:52:37;14.00;;;8.55;;
52124;SDS011;38119;52.710;6.398;2023-02-28T07:55:04;15.95;;;8.93;;
52124;SDS011;38119;52.710;6.398;2023-02-28T07:57:30;16.08;;;9.13;;
52124;SDS011;38119;52.710;6.398;2023-02-28T07:59:56;15.68;;;9.00;;
52124;SDS011;38119;52.710;6.398;2023-02-28T08:02:22;15.15;;;8.98;;
52124;SDS011;38119;52.710;6.398;2023-02-28T08:04:48;16.92;;;8.75;;
52124;SDS011;38119;52.710;6.398;2023-02-28T08:07:14;15.02;;;8.40;;
52124;SDS011;38119;52.710;6.398;2023-02-28T08:09:41;14.73;;;8.73;;
52124;SDS011;38119;52.710;6.398;2023-02-28T08:12:08;13.63;;;8.18;;
52124;SDS011;38119;52.710;6.398;2023-02-28T08:14:35;12.80;;;7.97;;
52124;SDS011;38119;52.710;6.398;2023-02-28T08:17:01;14.85;;;8.32;;
52124;SDS011;38119;52.710;6.398;2023-02-28T08:19:27;13.90;;;8.45;;
52124;SDS011;38119;52.710;6.398;2023-02-28T08:21:54;12.68;;;8.18;;
52124;SDS011;38119;52.710;6.398;2023-02-28T08:24:20;13.38;;;7.80;;
52124;SDS011;38119;52.710;6.398;2023-02-28T08:26:45;14.52;;;8.13;;
52124;SDS011;38119;52.710;6.398;2023-02-28T08:29:11;14.35;;;8.13;;
52124;SDS011;38119;52.710;6.398;2023-02-28T08:31:37;13.65;;;8.35;;
52124;SDS011;38119;52.710;6.398;2023-02-28T08:34:06;12.52;;;7.90;;
52124;SDS011;38119;52.710;6.398;2023-02-28T08:36:33;13.82;;;7.63;;
52124;SDS011;38119;52.710;6.398;2023-02-28T08:38:59;13.25;;;7.97;;
52124;SDS011;38119;52.710;6.398;2023-02-28T08:41:25;12.15;;;7.47;;
52124;SDS011;38119;52.710;6.398;2023-02-28T08:43:51;12.57;;;7.70;;
52124;SDS011;38119;52.710;6.398;2023-02-28T08:46:17;14.10;;;8.00;;
52124;SDS011;38119;52.710;6.398;2023-02-28T08:48:43;12.48;;;7.70;;
52124;SDS011;38119;52.710;6.398;2023-02-28T08:51:15;14.30;;;8.20;;
52124;SDS011;38119;52.710;6.398;2023-02-28T08:53:46;12.40;;;7.60;;
52124;SDS011;38119;52.710;6.398;2023-02-28T08:56:14;13.85;;;7.68;;
52124;SDS011;38119;52.710;6.398;2023-02-28T08:58:42;12.35;;;6.93;;
52124;SDS011;38119;52.710;6.398;2023-02-28T09:01:18;13.32;;;7.13;;
52124;SDS011;38119;52.710;6.398;2023-02-28T09:03:45;11.45;;;6.97;;
52124;SDS011;38119;52.710;6.398;2023-02-28T09:06:12;14.07;;;7.18;;
52124;SDS011;38119;52.710;6.398;2023-02-28T09:08:39;10.88;;;6.60;;
52124;SDS011;38119;52.710;6.398;2023-02-28T09:11:05;13.70;;;6.95;;
52124;SDS011;38119;52.710;6.398;2023-02-28T09:13:32;10.75;;;6.47;;
52124;SDS011;38119;52.710;6.398;2023-02-28T09:16:02;9.63;;;6.25;;
52124;SDS011;38119;52.710;6.398;2023-02-28T09:18:31;10.52;;;6.10;;
52124;SDS011;38119;52.710;6.398;2023-02-28T09:20:58;11.38;;;6.50;;
52124;SDS011;38119;52.710;6.398;2023-02-28T09:23:23;10.25;;;5.55;;
52124;SDS011;38119;52.710;6.398;2023-02-28T09:25:50;8.52;;;5.10;;
52124;SDS011;38119;52.710;6.398;2023-02-28T09:28:17;8.75;;;4.85;;
52124;SDS011;38119;52.710;6.398;2023-02-28T09:30:44;8.85;;;5.07;;
52124;SDS011;38119;52.710;6.398;2023-02-28T09:33:11;9.38;;;5.05;;
52124;SDS011;38119;52.710;6.398;2023-02-28T09:35:38;11.02;;;5.40;;
52124;SDS011;38119;52.710;6.398;2023-02-28T09:38:04;10.05;;;5.18;;
52124;SDS011;38119;52.710;6.398;2023-02-28T09:40:34;9.98;;;5.40;;
52124;SDS011;38119;52.710;6.398;2023-02-28T09:43:38;11.30;;;5.10;;
52124;SDS011;38119;52.710;6.398;2023-02-28T09:46:27;10.10;;;5.38;;
52124;SDS011;38119;52.710;6.398;2023-02-28T09:49:06;9.88;;;5.60;;
52124;SDS011;38119;52.710;6.398;2023-02-28T09:54:15;9.77;;;5.85;;
52124;SDS011;38119;52.710;6.398;2023-02-28T09:56:53;10.48;;;5.60;;
52124;SDS011;38119;52.710;6.398;2023-02-28T10:02:04;7.80;;;4.50;;
52124;SDS011;38119;52.710;6.398;2023-02-28T10:09:57;7.53;;;4.60;;
52124;SDS011;38119;52.710;6.398;2023-02-28T10:12:28;6.18;;;4.10;;
52124;SDS011;38119;52.710;6.398;2023-02-28T10:14:57;6.25;;;3.55;;
52124;SDS011;38119;52.710;6.398;2023-02-28T10:17:25;6.28;;;3.60;;
52124;SDS011;38119;52.710;6.398;2023-02-28T10:19:59;8.23;;;3.53;;
52124;SDS011;38119;52.710;6.398;2023-02-28T10:22:34;7.25;;;3.22;;
52124;SDS011;38119;52.710;6.398;2023-02-28T10:25:15;7.07;;;3.03;;
52124;SDS011;38119;52.710;6.398;2023-02-28T10:27:43;4.90;;;2.67;;
52124;SDS011;38119;52.710;6.398;2023-02-28T10:30:09;5.05;;;2.60;;
52124;SDS011;38119;52.710;6.398;2023-02-28T10:32:38;5.47;;;2.65;;
52124;SDS011;38119;52.710;6.398;2023-02-28T10:38:02;5.50;;;3.08;;
52124;SDS011;38119;52.710;6.398;2023-02-28T10:40:40;6.45;;;2.90;;
52124;SDS011;38119;52.710;6.398;2023-02-28T10:43:17;6.78;;;3.15;;
52124;SDS011;38119;52.710;6.398;2023-02-28T10:50:58;5.47;;;2.90;;
52124;SDS011;38119;52.710;6.398;2023-02-28T10:53:28;6.78;;;3.17;;
52124;SDS011;38119;52.710;6.398;2023-02-28T10:58:51;5.43;;;3.08;;
52124;SDS011;38119;52.710;6.398;2023-02-28T11:01:27;4.18;;;2.90;;
52124;SDS011;38119;52.710;6.398;2023-02-28T11:03:59;4.45;;;3.30;;
52124;SDS011;38119;52.710;6.398;2023-02-28T11:06:26;6.65;;;3.00;;
52124;SDS011;38119;52.710;6.398;2023-02-28T11:08:57;5.43;;;3.05;;
52124;SDS011;38119;52.710;6.398;2023-02-28T11:11:25;4.55;;;3.08;;
52124;SDS011;38119;52.710;6.398;2023-02-28T11:13:54;4.43;;;2.80;;
52124;SDS011;38119;52.710;6.398;2023-02-28T11:16:21;5.10;;;2.75;;
52124;SDS011;38119;52.710;6.398;2023-02-28T11:18:57;5.32;;;2.83;;
52124;SDS011;38119;52.710;6.398;2023-02-28T11:21:27;6.57;;;2.85;;
52124;SDS011;38119;52.710;6.398;2023-02-28T11:24:01;5.28;;;3.10;;
52124;SDS011;38119;52.710;6.398;2023-02-28T11:26:49;5.63;;;2.70;;
52124;SDS011;38119;52.710;6.398;2023-02-28T11:34:39;6.43;;;2.35;;
52124;SDS011;38119;52.710;6.398;2023-02-28T11:37:09;3.78;;;2.20;;
52124;SDS011;38119;52.710;6.398;2023-02-28T11:39:44;2.70;;;1.90;;
52124;SDS011;38119;52.710;6.398;2023-02-28T11:48:27;4.53;;;2.22;;
52124;SDS011;38119;52.710;6.398;2023-02-28T11:51:24;4.38;;;2.55;;
52124;SDS011;38119;52.710;6.398;2023-02-28T11:56:43;4.30;;;2.70;;
52124;SDS011;38119;52.710;6.398;2023-02-28T11:59:17;3.10;;;1.98;;
52124;SDS011;38119;52.710;6.398;2023-02-28T12:07:39;4.72;;;2.20;;
52124;SDS011;38119;52.710;6.398;2023-02-28T12:10:20;2.92;;;2.00;;
52124;SDS011;38119;52.710;6.398;2023-02-28T12:12:50;3.85;;;2.00;;
52124;SDS011;38119;52.710;6.398;2023-02-28T12:21:04;5.60;;;2.00;;
52124;SDS011;38119;52.710;6.398;2023-02-28T12:24:01;3.40;;;1.98;;
52124;SDS011;38119;52.710;6.398;2023-02-28T12:26:38;3.95;;;1.83;;
52124;SDS011;38119;52.710;6.398;2023-02-28T12:29:19;4.23;;;1.93;;
52124;SDS011;38119;52.710;6.398;2023-02-28T12:31:59;5.28;;;2.20;;
52124;SDS011;38119;52.710;6.398;2023-02-28T12:34:39;2.78;;;1.95;;
52124;SDS011;38119;52.710;6.398;2023-02-28T12:37:17;3.23;;;2.03;;
52124;SDS011;38119;52.710;6.398;2023-02-28T12:39:51;4.05;;;1.90;;
52124;SDS011;38119;52.710;6.398;2023-02-28T12:44:56;3.70;;;1.92;;
52124;SDS011;38119;52.710;6.398;2023-02-28T12:47:26;3.55;;;2.00;;
52124;SDS011;38119;52.710;6.398;2023-02-28T12:50:25;3.40;;;2.05;;
52124;SDS011;38119;52.710;6.398;2023-02-28T13:09:53;4.15;;;2.33;;
52124;SDS011;38119;52.710;6.398;2023-02-28T13:12:20;3.85;;;2.00;;
52124;SDS011;38119;52.710;6.398;2023-02-28T13:14:47;3.25;;;1.98;;
52124;SDS011;38119;52.710;6.398;2023-02-28T13:17:20;2.65;;;1.90;;
52124;SDS011;38119;52.710;6.398;2023-02-28T13:27:47;4.22;;;2.00;;
52124;SDS011;38119;52.710;6.398;2023-02-28T13:33:27;6.00;;;2.30;;
52124;SDS011;38119;52.710;6.398;2023-02-28T13:38:45;3.60;;;2.03;;
52124;SDS011;38119;52.710;6.398;2023-02-28T13:44:06;3.42;;;2.15;;
52124;SDS011;38119;52.710;6.398;2023-02-28T13:46:36;4.90;;;2.50;;
52124;SDS011;38119;52.710;6.398;2023-02-28T13:52:02;4.63;;;2.53;;
52124;SDS011;38119;52.710;6.398;2023-02-28T14:00:27;3.35;;;2.30;;
52124;SDS011;38119;52.710;6.398;2023-02-28T14:06:23;4.97;;;2.50;;
52124;SDS011;38119;52.710;6.398;2023-02-28T14:08:54;3.75;;;2.60;;
52124;SDS011;38119;52.710;6.398;2023-02-28T14:11:28;4.25;;;2.40;;
52124;SDS011;38119;52.710;6.398;2023-02-28T14:14:02;4.68;;;2.70;;
52124;SDS011;38119;52.710;6.398;2023-02-28T14:16:39;4.55;;;2.47;;
52124;SDS011;38119;52.710;6.398;2023-02-28T14:19:13;3.65;;;2.25;;
52124;SDS011;38119;52.710;6.398;2023-02-28T14:27:58;3.95;;;2.60;;
52124;SDS011;38119;52.710;6.398;2023-02-28T14:31:07;4.88;;;2.25;;
52124;SDS011;38119;52.710;6.398;2023-02-28T14:36:25;5.20;;;3.05;;
52124;SDS011;38119;52.710;6.398;2023-02-28T14:41:33;4.03;;;2.63;;
52124;SDS011;38119;52.710;6.398;2023-02-28T14:44:02;3.50;;;2.42;;
52124;SDS011;38119;52.710;6.398;2023-02-28T14:46:40;5.45;;;2.53;;
52124;SDS011;38119;52.710;6.398;2023-02-28T14:49:12;4.28;;;2.38;;
52124;SDS011;38119;52.710;6.398;2023-02-28T14:51:42;4.82;;;2.78;;
52124;SDS011;38119;52.710;6.398;2023-02-28T14:54:12;6.38;;;2.83;;
52124;SDS011;38119;52.710;6.398;2023-02-28T14:56:40;4.05;;;2.63;;
52124;SDS011;38119;52.710;6.398;2023-02-28T14:59:21;5.40;;;2.85;;
52124;SDS011;38119;52.710;6.398;2023-02-28T15:01:50;4.85;;;2.80;;
52124;SDS011;38119;52.710;6.398;2023-02-28T15:04:20;5.93;;;2.85;;
52124;SDS011;38119;52.710;6.398;2023-02-28T15:07:08;3.83;;;2.60;;
52124;SDS011;38119;52.710;6.398;2023-02-28T15:09:34;5.65;;;2.70;;
52124;SDS011;38119;52.710;6.398;2023-02-28T15:12:00;4.47;;;2.92;;
52124;SDS011;38119;52.710;6.398;2023-02-28T15:14:26;4.55;;;2.90;;
52124;SDS011;38119;52.710;6.398;2023-02-28T15:17:01;6.22;;;3.00;;
52124;SDS011;38119;52.710;6.398;2023-02-28T15:19:32;4.68;;;2.60;;
52124;SDS011;38119;52.710;6.398;2023-02-28T15:22:04;4.45;;;2.70;;
52124;SDS011;38119;52.710;6.398;2023-02-28T15:24:37;4.50;;;3.00;;
52124;SDS011;38119;52.710;6.398;2023-02-28T15:27:20;29.83;;;4.30;;
52124;SDS011;38119;52.710;6.398;2023-02-28T15:29:49;16.65;;;3.78;;
52124;SDS011;38119;52.710;6.398;2023-02-28T15:32:24;11.43;;;3.47;;
52124;SDS011;38119;52.710;6.398;2023-02-28T15:34:59;7.30;;;2.70;;
52124;SDS011;38119;52.710;6.398;2023-02-28T15:37:50;5.43;;;2.67;;
52124;SDS011;38119;52.710;6.398;2023-02-28T15:40:42;6.28;;;3.10;;
52124;SDS011;38119;52.710;6.398;2023-02-28T15:43:16;10.18;;;3.03;;
52124;SDS011;38119;52.710;6.398;2023-02-28T15:45:48;4.30;;;2.70;;
52124;SDS011;38119;52.710;6.398;2023-02-28T15:51:07;5.00;;;2.90;;
52124;SDS011;38119;52.710;6.398;2023-02-28T15:53:42;5.57;;;3.17;;
52124;SDS011;38119;52.710;6.398;2023-02-28T15:59:32;4.57;;;2.70;;
52124;SDS011;38119;52.710;6.398;2023-02-28T16:02:17;5.63;;;2.70;;
52124;SDS011;38119;52.710;6.398;2023-02-28T16:07:43;4.15;;;2.70;;
52124;SDS011;38119;52.710;6.398;2023-02-28T16:10:10;6.20;;;2.92;;
52124;SDS011;38119;52.710;6.398;2023-02-28T16:12:39;4.97;;;2.90;;
52124;SDS011;38119;52.710;6.398;2023-02-28T16:17:54;6.80;;;2.83;;
52124;SDS011;38119;52.710;6.398;2023-02-28T16:20:22;5.22;;;3.10;;
52124;SDS011;38119;52.710;6.398;2023-02-28T16:22:52;6.20;;;3.47;;
52124;SDS011;38119;52.710;6.398;2023-02-28T16:25:20;5.50;;;3.35;;
52124;SDS011;38119;52.710;6.398;2023-02-28T16:27:51;7.13;;;3.72;;
52124;SDS011;38119;52.710;6.398;2023-02-28T16:30:20;6.43;;;3.60;;
52124;SDS011;38119;52.710;6.398;2023-02-28T16:32:48;6.43;;;3.90;;
52124;SDS011;38119;52.710;6.398;2023-02-28T16:35:14;7.13;;;3.60;;
52124;SDS011;38119;52.710;6.398;2023-02-28T16:37:40;5.63;;;3.75;;
52124;SDS011;38119;52.710;6.398;2023-02-28T16:40:07;6.93;;;4.38;;
52124;SDS011;38119;52.710;6.398;2023-02-28T16:42:42;7.15;;;4.13;;
52124;SDS011;38119;52.710;6.398;2023-02-28T16:45:20;7.95;;;4.00;;
52124;SDS011;38119;52.710;6.398;2023-02-28T16:47:48;7.15;;;4.53;;
52124;SDS011;38119;52.710;6.398;2023-02-28T16:50:18;7.00;;;4.45;;
52124;SDS011;38119;52.710;6.398;2023-02-28T16:52:44;6.32;;;4.60;;
52124;SDS011;38119;52.710;6.398;2023-02-28T16:55:11;9.63;;;6.20;;
52124;SDS011;38119;52.710;6.398;2023-02-28T16:57:37;10.30;;;7.03;;
52124;SDS011;38119;52.710;6.398;2023-02-28T17:00:04;10.50;;;6.75;;
52124;SDS011;38119;52.710;6.398;2023-02-28T17:02:32;7.47;;;5.28;;
52124;SDS011;38119;52.710;6.398;2023-02-28T17:04:59;7.53;;;4.47;;
52124;SDS011;38119;52.710;6.398;2023-02-28T17:07:24;8.63;;;5.30;;
52124;SDS011;38119;52.710;6.398;2023-02-28T17:09:50;9.23;;;5.30;;
52124;SDS011;38119;52.710;6.398;2023-02-28T17:12:16;9.55;;;6.18;;
52124;SDS011;38119;52.710;6.398;2023-02-28T17:14:41;10.27;;;5.97;;
52124;SDS011;38119;52.710;6.398;2023-02-28T17:17:09;11.07;;;6.50;;
52124;SDS011;38119;52.710;6.398;2023-02-28T17:19:40;16.80;;;10.25;;
52124;SDS011;38119;52.710;6.398;2023-02-28T17:22:08;18.65;;;11.38;;
52124;SDS011;38119;52.710;6.398;2023-02-28T17:24:33;16.67;;;11.13;;
52124;SDS011;38119;52.710;6.398;2023-02-28T17:26:59;16.42;;;10.30;;
52124;SDS011;38119;52.710;6.398;2023-02-28T17:29:25;13.82;;;9.00;;
52124;SDS011;38119;52.710;6.398;2023-02-28T17:31:50;12.55;;;8.57;;
52124;SDS011;38119;52.710;6.398;2023-02-28T17:34:16;12.40;;;8.45;;